sensor_id;sensor_type;location;lat;lon;timestamp;pressure;altitude;pressure_sealevel;temperature;humidity
2711;BME280;20721;47.402;8.550;2023-12-20T00:00:27;96379;;;6.89;55.57
2711;BME280;20721;47.402;8.550;2023-12-20T00:02:27;96378;;;7.07;55.28
2711;BME280;20721;47.402;8.550;2023-12-20T00:04:27;96379;;;7.19;55.16
2711;BME280;20721;47.402;8.550;2023-12-20T00:06:27;96379;;;7.27;55.12
2711;BME280;20721;47.402;8.550;2023-12-20T00:08:27;96377;;;7.38;55.08
2711;BME280;20721;47.402;8.550;2023-12-20T00:10:27;96377;;;7.45;55.11
2711;BME280;20721;47.402;8.550;2023-12-20T00:13:28;96372;;;7.51;54.90
2711;BME280;20721;47.402;8.550;2023-12-20T00:15:27;96367;;;7.41;54.66
2711;BME280;20721;47.402;8.550;2023-12-20T00:17:27;96368;;;7.33;54.76
2711;BME280;20721;47.402;8.550;2023-12-20T00:19:28;96354;;;7.36;55.17
2711;BME280;20721;47.402;8.550;2023-12-20T00:21:27;96338;;;7.03;55.24
2711;BME280;20721;47.402;8.550;2023-12-20T00:23:27;96334;;;6.84;55.70
2711;BME280;20721;47.402;8.550;2023-12-20T00:25:27;96329;;;6.71;55.65
2711;BME280;20721;47.402;8.550;2023-12-20T00:27:27;96329;;;6.61;54.66
2711;BME280;20721;47.402;8.550;2023-12-20T00:29:27;96325;;;6.68;55.32
2711;BME280;20721;47.402;8.550;2023-12-20T00:32:28;96328;;;6.57;54.94
2711;BME280;20721;47.402;8.550;2023-12-20T00:34:27;96319;;;6.55;54.64
2711;BME280;20721;47.402;8.550;2023-12-20T00:36:27;96307;;;6.60;54.51
2711;BME280;20721;47.402;8.550;2023-12-20T00:38:27;96303;;;6.80;54.15
2711;BME280;20721;47.402;8.550;2023-12-20T00:40:27;96300;;;6.99;53.92
2711;BME280;20721;47.402;8.550;2023-12-20T00:42:27;96307;;;7.15;53.36
2711;BME280;20721;47.402;8.550;2023-12-20T00:44:27;96300;;;7.27;52.56
2711;BME280;20721;47.402;8.550;2023-12-20T00:46:28;96300;;;7.43;52.17
2711;BME280;20721;47.402;8.550;2023-12-20T00:49:28;96296;;;7.33;52.08
2711;BME280;20721;47.402;8.550;2023-12-20T00:51:27;96296;;;7.28;52.37
2711;BME280;20721;47.402;8.550;2023-12-20T00:53:27;96319;;;7.33;52.76
2711;BME280;20721;47.402;8.550;2023-12-20T00:55:29;96316;;;7.45;52.69
2711;BME280;20721;47.402;8.550;2023-12-20T00:57:27;96306;;;7.36;52.98
2711;BME280;20721;47.402;8.550;2023-12-20T00:59:27;96290;;;7.25;53.23
2711;BME280;20721;47.402;8.550;2023-12-20T01:01:28;96287;;;7.30;53.11
2711;BME280;20721;47.402;8.550;2023-12-20T01:03:28;96298;;;7.14;52.96
2711;BME280;20721;47.402;8.550;2023-12-20T01:05:28;96297;;;7.26;53.18
2711;BME280;20721;47.402;8.550;2023-12-20T01:07:28;96295;;;7.45;53.01
2711;BME280;20721;47.402;8.550;2023-12-20T01:09:28;96298;;;7.56;53.30
2711;BME280;20721;47.402;8.550;2023-12-20T01:13:28;96302;;;7.59;53.29
2711;BME280;20721;47.402;8.550;2023-12-20T01:15:28;96310;;;7.58;53.37
2711;BME280;20721;47.402;8.550;2023-12-20T01:17:28;96309;;;7.58;53.23
2711;BME280;20721;47.402;8.550;2023-12-20T01:20:28;96317;;;7.58;53.17
2711;BME280;20721;47.402;8.550;2023-12-20T01:22:28;96323;;;7.57;53.35
2711;BME280;20721;47.402;8.550;2023-12-20T01:24:28;96323;;;7.58;53.42
2711;BME280;20721;47.402;8.550;2023-12-20T01:26:28;96316;;;7.46;53.92
2711;BME280;20721;47.402;8.550;2023-12-20T01:29:28;96324;;;7.38;54.75
2711;BME280;20721;47.402;8.550;2023-12-20T01:31:28;96313;;;7.38;55.00
2711;BME280;20721;47.402;8.550;2023-12-20T01:34:28;96310;;;7.36;55.58
2711;BME280;20721;47.402;8.550;2023-12-20T01:36:28;96303;;;7.43;55.65
2711;BME280;20721;47.402;8.550;2023-12-20T01:38:28;96314;;;7.52;55.60
2711;BME280;20721;47.402;8.550;2023-12-20T01:40:28;96323;;;7.50;55.30
2711;BME280;20721;47.402;8.550;2023-12-20T01:42:28;96323;;;7.51;55.33
2711;BME280;20721;47.402;8.550;2023-12-20T01:44:28;96324;;;7.54;55.50
2711;BME280;20721;47.402;8.550;2023-12-20T01:46:28;96322;;;7.57;55.32
2711;BME280;20721;47.402;8.550;2023-12-20T01:49:28;96320;;;7.56;54.55
2711;BME280;20721;47.402;8.550;2023-12-20T01:51:28;96319;;;7.52;54.92
2711;BME280;20721;47.402;8.550;2023-12-20T01:53:28;96321;;;7.30;54.42
2711;BME280;20721;47.402;8.550;2023-12-20T01:55:29;96319;;;7.18;54.90
2711;BME280;20721;47.402;8.550;2023-12-20T01:57:28;96331;;;7.20;54.63
2711;BME280;20721;47.402;8.550;2023-12-20T01:59:28;96329;;;7.15;54.67
2711;BME280;20721;47.402;8.550;2023-12-20T02:01:28;96325;;;7.16;54.62
2711;BME280;20721;47.402;8.550;2023-12-20T02:03:28;96323;;;7.21;55.07
2711;BME280;20721;47.402;8.550;2023-12-20T02:05:29;96321;;;7.30;54.58
2711;BME280;20721;47.402;8.550;2023-12-20T02:07:28;96323;;;7.37;54.64
2711;BME280;20721;47.402;8.550;2023-12-20T02:09:28;96323;;;7.42;54.74
2711;BME280;20721;47.402;8.550;2023-12-20T02:11:28;96332;;;7.47;55.01
2711;BME280;20721;47.402;8.550;2023-12-20T02:13:28;96326;;;7.50;55.43
2711;BME280;20721;47.402;8.550;2023-12-20T02:15:28;96328;;;7.52;56.58
2711;BME280;20721;47.402;8.550;2023-12-20T02:17:28;96329;;;7.52;57.32
2711;BME280;20721;47.402;8.550;2023-12-20T02:19:28;96330;;;7.48;57.94
2711;BME280;20721;47.402;8.550;2023-12-20T02:21:32;96325;;;7.41;58.46
2711;BME280;20721;47.402;8.550;2023-12-20T02:23:28;96323;;;7.39;58.84
2711;BME280;20721;47.402;8.550;2023-12-20T02:25:28;96329;;;7.35;59.18
2711;BME280;20721;47.402;8.550;2023-12-20T02:27:28;96321;;;7.41;59.52
2711;BME280;20721;47.402;8.550;2023-12-20T02:29:28;96315;;;7.48;59.52
2711;BME280;20721;47.402;8.550;2023-12-20T02:31:28;96307;;;7.49;59.62
2711;BME280;20721;47.402;8.550;2023-12-20T02:33:28;96306;;;7.49;59.84
2711;BME280;20721;47.402;8.550;2023-12-20T02:35:28;96304;;;7.45;59.96
2711;BME280;20721;47.402;8.550;2023-12-20T02:37:28;96309;;;7.27;60.84
2711;BME280;20721;47.402;8.550;2023-12-20T02:39:28;96315;;;7.25;61.09
2711;BME280;20721;47.402;8.550;2023-12-20T02:41:28;96315;;;6.87;61.58
2711;BME280;20721;47.402;8.550;2023-12-20T02:43:28;96322;;;6.89;62.02
2711;BME280;20721;47.402;8.550;2023-12-20T02:45:28;96322;;;7.02;61.76
2711;BME280;20721;47.402;8.550;2023-12-20T02:47:29;96328;;;7.15;60.82
2711;BME280;20721;47.402;8.550;2023-12-20T02:49:28;96329;;;7.22;60.21
2711;BME280;20721;47.402;8.550;2023-12-20T02:51:28;96330;;;7.26;60.06
2711;BME280;20721;47.402;8.550;2023-12-20T02:53:28;96325;;;7.11;59.82
2711;BME280;20721;47.402;8.550;2023-12-20T02:55:28;96322;;;7.06;60.19
2711;BME280;20721;47.402;8.550;2023-12-20T02:57:28;96326;;;6.68;60.92
2711;BME280;20721;47.402;8.550;2023-12-20T02:59:28;96328;;;6.61;61.57
2711;BME280;20721;47.402;8.550;2023-12-20T03:01:28;96326;;;6.68;61.93
2711;BME280;20721;47.402;8.550;2023-12-20T03:03:28;96329;;;6.73;61.72
2711;BME280;20721;47.402;8.550;2023-12-20T03:05:28;96325;;;6.76;61.92
2711;BME280;20721;47.402;8.550;2023-12-20T03:07:28;96324;;;6.87;62.20
2711;BME280;20721;47.402;8.550;2023-12-20T03:09:31;96323;;;6.91;61.73
2711;BME280;20721;47.402;8.550;2023-12-20T03:11:28;96326;;;6.87;62.06
2711;BME280;20721;47.402;8.550;2023-12-20T03:13:28;96328;;;6.88;62.21
2711;BME280;20721;47.402;8.550;2023-12-20T03:15:28;96331;;;6.68;62.68
2711;BME280;20721;47.402;8.550;2023-12-20T03:17:28;96335;;;6.42;63.39
2711;BME280;20721;47.402;8.550;2023-12-20T03:19:29;96337;;;6.24;64.21
2711;BME280;20721;47.402;8.550;2023-12-20T03:21:28;96330;;;6.00;64.78
2711;BME280;20721;47.402;8.550;2023-12-20T03:23:28;96331;;;5.80;65.30
2711;BME280;20721;47.402;8.550;2023-12-20T03:25:28;96328;;;5.64;66.27
2711;BME280;20721;47.402;8.550;2023-12-20T03:27:28;96325;;;5.56;66.23
2711;BME280;20721;47.402;8.550;2023-12-20T03:29:28;96323;;;5.73;66.36
2711;BME280;20721;47.402;8.550;2023-12-20T03:31:28;96317;;;5.80;66.24
2711;BME280;20721;47.402;8.550;2023-12-20T03:33:28;96318;;;6.12;65.90
2711;BME280;20721;47.402;8.550;2023-12-20T03:35:28;96321;;;6.19;65.45
2711;BME280;20721;47.402;8.550;2023-12-20T03:37:28;96322;;;6.24;65.53
2711;BME280;20721;47.402;8.550;2023-12-20T03:39:28;96322;;;6.41;65.22
2711;BME280;20721;47.402;8.550;2023-12-20T03:41:28;96328;;;6.51;64.54
2711;BME280;20721;47.402;8.550;2023-12-20T03:43:28;96329;;;6.55;64.51
2711;BME280;20721;47.402;8.550;2023-12-20T03:45:28;96326;;;6.54;64.51
2711;BME280;20721;47.402;8.550;2023-12-20T03:47:28;96329;;;6.63;64.62
2711;BME280;20721;47.402;8.550;2023-12-20T03:49:28;96332;;;6.70;64.31
2711;BME280;20721;47.402;8.550;2023-12-20T03:51:28;96337;;;6.73;64.18
2711;BME280;20721;47.402;8.550;2023-12-20T03:53:28;96341;;;6.81;64.23
2711;BME280;20721;47.402;8.550;2023-12-20T03:55:28;96340;;;6.86;64.04
2711;BME280;20721;47.402;8.550;2023-12-20T03:57:28;96340;;;6.86;64.14
2711;BME280;20721;47.402;8.550;2023-12-20T03:59:28;96347;;;6.94;64.27
2711;BME280;20721;47.402;8.550;2023-12-20T04:01:28;96345;;;7.00;64.08
2711;BME280;20721;47.402;8.550;2023-12-20T04:03:28;96346;;;7.02;64.03
2711;BME280;20721;47.402;8.550;2023-12-20T04:05:28;96347;;;7.00;63.82
2711;BME280;20721;47.402;8.550;2023-12-20T04:07:29;96344;;;7.02;64.16
2711;BME280;20721;47.402;8.550;2023-12-20T04:09:28;96346;;;7.08;64.45
2711;BME280;20721;47.402;8.550;2023-12-20T04:11:28;96344;;;7.04;64.39
2711;BME280;20721;47.402;8.550;2023-12-20T04:13:28;96334;;;7.04;64.19
2711;BME280;20721;47.402;8.550;2023-12-20T04:15:28;96337;;;6.93;64.50
2711;BME280;20721;47.402;8.550;2023-12-20T04:17:28;96338;;;6.88;65.03
2711;BME280;20721;47.402;8.550;2023-12-20T04:19:28;96336;;;6.77;65.27
2711;BME280;20721;47.402;8.550;2023-12-20T04:21:28;96343;;;6.66;65.96
2711;BME280;20721;47.402;8.550;2023-12-20T04:23:28;96345;;;6.48;66.76
2711;BME280;20721;47.402;8.550;2023-12-20T04:25:28;96345;;;6.48;67.23
2711;BME280;20721;47.402;8.550;2023-12-20T04:27:28;96348;;;6.52;66.97
2711;BME280;20721;47.402;8.550;2023-12-20T04:29:28;96351;;;6.61;67.11
2711;BME280;20721;47.402;8.550;2023-12-20T04:31:28;96349;;;6.48;67.67
2711;BME280;20721;47.402;8.550;2023-12-20T04:33:28;96352;;;6.60;67.60
2711;BME280;20721;47.402;8.550;2023-12-20T04:35:28;96362;;;6.70;67.44
2711;BME280;20721;47.402;8.550;2023-12-20T04:37:28;96364;;;6.83;67.48
2711;BME280;20721;47.402;8.550;2023-12-20T04:39:28;96368;;;6.97;66.67
2711;BME280;20721;47.402;8.550;2023-12-20T04:41:28;96366;;;7.01;66.69
2711;BME280;20721;47.402;8.550;2023-12-20T04:44:28;96371;;;7.03;66.51
2711;BME280;20721;47.402;8.550;2023-12-20T04:46:28;96376;;;7.13;66.25
2711;BME280;20721;47.402;8.550;2023-12-20T04:48:28;96381;;;7.23;66.13
2711;BME280;20721;47.402;8.550;2023-12-20T04:50:28;96379;;;7.31;65.99
2711;BME280;20721;47.402;8.550;2023-12-20T04:52:28;96379;;;7.30;66.09
2711;BME280;20721;47.402;8.550;2023-12-20T04:54:28;96376;;;7.32;66.12
2711;BME280;20721;47.402;8.550;2023-12-20T04:56:28;96380;;;7.40;65.93
2711;BME280;20721;47.402;8.550;2023-12-20T04:58:28;96379;;;7.48;66.05
2711;BME280;20721;47.402;8.550;2023-12-20T05:00:28;96372;;;7.46;65.55
2711;BME280;20721;47.402;8.550;2023-12-20T05:02:28;96372;;;7.45;65.90
2711;BME280;20721;47.402;8.550;2023-12-20T05:05:28;96387;;;7.50;65.76
2711;BME280;20721;47.402;8.550;2023-12-20T05:07:28;96387;;;7.45;65.78
2711;BME280;20721;47.402;8.550;2023-12-20T05:09:28;96392;;;7.29;65.95
2711;BME280;20721;47.402;8.550;2023-12-20T05:11:28;96391;;;7.23;66.36
2711;BME280;20721;47.402;8.550;2023-12-20T05:13:39;96381;;;7.13;66.65
2711;BME280;20721;47.402;8.550;2023-12-20T05:15:28;96385;;;7.04;66.67
2711;BME280;20721;47.402;8.550;2023-12-20T05:17:28;96381;;;7.06;67.03
2711;BME280;20721;47.402;8.550;2023-12-20T05:19:28;96385;;;7.13;67.01
2711;BME280;20721;47.402;8.550;2023-12-20T05:21:28;96385;;;7.21;66.81
2711;BME280;20721;47.402;8.550;2023-12-20T05:23:28;96390;;;7.30;66.37
2711;BME280;20721;47.402;8.550;2023-12-20T05:25:28;96389;;;7.39;66.42
2711;BME280;20721;47.402;8.550;2023-12-20T05:27:28;96393;;;7.45;66.16
2711;BME280;20721;47.402;8.550;2023-12-20T05:29:28;96395;;;7.52;66.17
2711;BME280;20721;47.402;8.550;2023-12-20T05:31:28;96394;;;7.49;65.81
2711;BME280;20721;47.402;8.550;2023-12-20T05:33:28;96393;;;7.54;66.22
2711;BME280;20721;47.402;8.550;2023-12-20T05:36:28;96395;;;7.48;66.06
2711;BME280;20721;47.402;8.550;2023-12-20T05:39:28;96397;;;7.51;66.11
2711;BME280;20721;47.402;8.550;2023-12-20T05:41:28;96408;;;7.61;66.10
2711;BME280;20721;47.402;8.550;2023-12-20T05:43:28;96411;;;7.56;65.98
2711;BME280;20721;47.402;8.550;2023-12-20T05:45:29;96415;;;7.60;65.97
2711;BME280;20721;47.402;8.550;2023-12-20T05:47:28;96424;;;7.67;66.32
2711;BME280;20721;47.402;8.550;2023-12-20T05:49:28;96424;;;7.76;66.10
2711;BME280;20721;47.402;8.550;2023-12-20T05:51:28;96421;;;7.77;65.66
2711;BME280;20721;47.402;8.550;2023-12-20T05:53:28;96410;;;7.78;65.77
2711;BME280;20721;47.402;8.550;2023-12-20T05:55:28;96407;;;7.72;65.36
2711;BME280;20721;47.402;8.550;2023-12-20T05:57:28;96408;;;7.62;65.85
2711;BME280;20721;47.402;8.550;2023-12-20T05:59:28;96413;;;7.65;66.17
2711;BME280;20721;47.402;8.550;2023-12-20T06:01:28;96404;;;7.64;66.01
2711;BME280;20721;47.402;8.550;2023-12-20T06:03:28;96400;;;7.64;66.01
2711;BME280;20721;47.402;8.550;2023-12-20T06:05:28;96403;;;7.65;66.27
2711;BME280;20721;47.402;8.550;2023-12-20T06:07:29;96416;;;7.69;66.15
2711;BME280;20721;47.402;8.550;2023-12-20T06:09:31;96422;;;7.70;66.11
2711;BME280;20721;47.402;8.550;2023-12-20T06:11:28;96418;;;7.71;66.17
2711;BME280;20721;47.402;8.550;2023-12-20T06:13:28;96418;;;7.77;66.16
2711;BME280;20721;47.402;8.550;2023-12-20T06:15:28;96417;;;7.76;65.69
2711;BME280;20721;47.402;8.550;2023-12-20T06:17:30;96418;;;7.74;66.03
2711;BME280;20721;47.402;8.550;2023-12-20T06:19:28;96422;;;7.76;66.08
2711;BME280;20721;47.402;8.550;2023-12-20T06:21:28;96421;;;7.79;65.94
2711;BME280;20721;47.402;8.550;2023-12-20T06:24:28;96424;;;7.81;66.01
2711;BME280;20721;47.402;8.550;2023-12-20T06:26:28;96419;;;7.82;66.25
2711;BME280;20721;47.402;8.550;2023-12-20T06:28:28;96414;;;7.74;66.18
2711;BME280;20721;47.402;8.550;2023-12-20T06:30:28;96409;;;7.76;66.41
2711;BME280;20721;47.402;8.550;2023-12-20T06:32:29;96414;;;7.72;66.06
2711;BME280;20721;47.402;8.550;2023-12-20T06:34:28;96419;;;7.79;66.50
2711;BME280;20721;47.402;8.550;2023-12-20T06:36:28;96423;;;7.83;66.14
2711;BME280;20721;47.402;8.550;2023-12-20T06:38:28;96431;;;7.88;66.08
2711;BME280;20721;47.402;8.550;2023-12-20T06:40:28;96434;;;7.95;66.17
2711;BME280;20721;47.402;8.550;2023-12-20T06:42:31;96433;;;8.01;65.98
2711;BME280;20721;47.402;8.550;2023-12-20T06:45:28;96432;;;8.06;66.12
2711;BME280;20721;47.402;8.550;2023-12-20T06:47:28;96435;;;8.09;66.14
2711;BME280;20721;47.402;8.550;2023-12-20T06:49:28;96442;;;8.15;65.97
2711;BME280;20721;47.402;8.550;2023-12-20T06:51:28;96441;;;8.19;65.90
2711;BME280;20721;47.402;8.550;2023-12-20T06:54:28;96443;;;8.13;65.90
2711;BME280;20721;47.402;8.550;2023-12-20T06:56:28;96451;;;8.14;66.21
2711;BME280;20721;47.402;8.550;2023-12-20T07:01:29;96458;;;8.17;66.19
2711;BME280;20721;47.402;8.550;2023-12-20T07:03:28;96457;;;8.17;66.31
2711;BME280;20721;47.402;8.550;2023-12-20T07:05:28;96462;;;8.16;66.47
2711;BME280;20721;47.402;8.550;2023-12-20T07:07:28;96457;;;8.19;66.30
2711;BME280;20721;47.402;8.550;2023-12-20T07:09:28;96454;;;8.19;66.41
2711;BME280;20721;47.402;8.550;2023-12-20T07:11:29;96454;;;8.21;66.66
2711;BME280;20721;47.402;8.550;2023-12-20T07:13:29;96458;;;8.25;66.74
2711;BME280;20721;47.402;8.550;2023-12-20T07:15:30;96456;;;8.28;66.63
2711;BME280;20721;47.402;8.550;2023-12-20T07:17:28;96456;;;8.35;66.30
2711;BME280;20721;47.402;8.550;2023-12-20T07:19:29;96449;;;8.41;66.23
2711;BME280;20721;47.402;8.550;2023-12-20T07:21:28;96450;;;8.50;66.00
2711;BME280;20721;47.402;8.550;2023-12-20T07:23:29;96451;;;8.58;65.85
2711;BME280;20721;47.402;8.550;2023-12-20T07:25:32;96463;;;8.62;65.62
2711;BME280;20721;47.402;8.550;2023-12-20T07:27:28;96464;;;8.66;65.37
2711;BME280;20721;47.402;8.550;2023-12-20T07:29:28;96467;;;8.71;65.38
2711;BME280;20721;47.402;8.550;2023-12-20T07:34:29;96472;;;8.75;65.33
2711;BME280;20721;47.402;8.550;2023-12-20T07:36:28;96472;;;8.73;65.27
2711;BME280;20721;47.402;8.550;2023-12-20T07:38:28;96469;;;8.74;65.34
2711;BME280;20721;47.402;8.550;2023-12-20T07:42:28;96469;;;8.68;65.44
2711;BME280;20721;47.402;8.550;2023-12-20T07:44:28;96473;;;8.57;65.58
2711;BME280;20721;47.402;8.550;2023-12-20T07:46:29;96472;;;8.56;65.95
2711;BME280;20721;47.402;8.550;2023-12-20T07:48:29;96476;;;8.41;66.18
2711;BME280;20721;47.402;8.550;2023-12-20T07:51:28;96486;;;8.45;66.36
2711;BME280;20721;47.402;8.550;2023-12-20T07:53:29;96494;;;8.42;66.54
2711;BME280;20721;47.402;8.550;2023-12-20T07:55:30;96498;;;8.38;66.64
2711;BME280;20721;47.402;8.550;2023-12-20T07:57:29;96505;;;8.38;66.55
2711;BME280;20721;47.402;8.550;2023-12-20T07:59:33;96502;;;8.38;66.57
2711;BME280;20721;47.402;8.550;2023-12-20T08:01:29;96498;;;8.43;66.39
2711;BME280;20721;47.402;8.550;2023-12-20T08:03:29;96492;;;8.47;66.55
2711;BME280;20721;47.402;8.550;2023-12-20T08:06:29;96487;;;8.41;66.70
2711;BME280;20721;47.402;8.550;2023-12-20T08:08:28;96490;;;8.34;67.07
2711;BME280;20721;47.402;8.550;2023-12-20T08:10:30;96490;;;8.32;67.14
2711;BME280;20721;47.402;8.550;2023-12-20T08:12:29;96497;;;8.37;67.06
2711;BME280;20721;47.402;8.550;2023-12-20T08:14:28;96501;;;8.46;66.81
2711;BME280;20721;47.402;8.550;2023-12-20T08:16:29;96501;;;8.45;66.61
2711;BME280;20721;47.402;8.550;2023-12-20T08:19:29;96502;;;8.46;66.85
2711;BME280;20721;47.402;8.550;2023-12-20T08:21:29;96500;;;8.48;66.67
2711;BME280;20721;47.402;8.550;2023-12-20T08:23:32;96508;;;8.51;66.81
2711;BME280;20721;47.402;8.550;2023-12-20T08:25:29;96509;;;8.61;66.68
2711;BME280;20721;47.402;8.550;2023-12-20T08:27:29;96512;;;8.66;66.35
2711;BME280;20721;47.402;8.550;2023-12-20T08:29:29;96504;;;8.66;66.23
2711;BME280;20721;47.402;8.550;2023-12-20T08:31:29;96498;;;8.70;66.23
2711;BME280;20721;47.402;8.550;2023-12-20T08:33:29;96495;;;8.79;65.89
2711;BME280;20721;47.402;8.550;2023-12-20T08:35:29;96507;;;8.69;65.47
2711;BME280;20721;47.402;8.550;2023-12-20T08:37:29;96503;;;8.58;65.63
2711;BME280;20721;47.402;8.550;2023-12-20T08:39:30;96505;;;8.57;66.22
2711;BME280;20721;47.402;8.550;2023-12-20T08:41:29;96504;;;8.66;66.12
2711;BME280;20721;47.402;8.550;2023-12-20T08:43:29;96509;;;8.69;65.82
2711;BME280;20721;47.402;8.550;2023-12-20T08:46:29;96510;;;8.72;65.77
2711;BME280;20721;47.402;8.550;2023-12-20T08:48:29;96508;;;8.61;65.80
2711;BME280;20721;47.402;8.550;2023-12-20T08:50:29;96509;;;8.64;66.04
2711;BME280;20721;47.402;8.550;2023-12-20T08:53:29;96511;;;8.59;65.96
2711;BME280;20721;47.402;8.550;2023-12-20T08:55:30;96513;;;8.62;65.99
2711;BME280;20721;47.402;8.550;2023-12-20T08:57:29;96518;;;8.71;65.85
2711;BME280;20721;47.402;8.550;2023-12-20T08:59:29;96518;;;8.82;65.59
2711;BME280;20721;47.402;8.550;2023-12-20T09:01:29;96517;;;8.74;65.17
2711;BME280;20721;47.402;8.550;2023-12-20T09:03:29;96518;;;8.76;65.32
2711;BME280;20721;47.402;8.550;2023-12-20T09:05:30;96517;;;8.83;65.32
2711;BME280;20721;47.402;8.550;2023-12-20T09:07:31;96513;;;8.81;64.98
2711;BME280;20721;47.402;8.550;2023-12-20T09:09:29;96509;;;8.73;64.93
2711;BME280;20721;47.402;8.550;2023-12-20T09:11:29;96505;;;8.73;65.29
2711;BME280;20721;47.402;8.550;2023-12-20T09:13:29;96503;;;8.64;65.35
2711;BME280;20721;47.402;8.550;2023-12-20T09:15:30;96503;;;8.60;65.56
2711;BME280;20721;47.402;8.550;2023-12-20T09:18:29;96512;;;8.67;65.59
2711;BME280;20721;47.402;8.550;2023-12-20T09:20:29;96512;;;8.75;65.38
2711;BME280;20721;47.402;8.550;2023-12-20T09:22:29;96509;;;8.70;65.15
2711;BME280;20721;47.402;8.550;2023-12-20T09:24:29;96517;;;8.65;65.33
2711;BME280;20721;47.402;8.550;2023-12-20T09:26:29;96520;;;8.56;65.23
2711;BME280;20721;47.402;8.550;2023-12-20T09:28:29;96523;;;8.59;65.56
2711;BME280;20721;47.402;8.550;2023-12-20T09:30:29;96525;;;8.66;65.27
2711;BME280;20721;47.402;8.550;2023-12-20T09:32:29;96522;;;8.58;65.62
2711;BME280;20721;47.402;8.550;2023-12-20T09:34:29;96529;;;8.46;65.84
2711;BME280;20721;47.402;8.550;2023-12-20T09:36:31;96531;;;8.48;66.08
2711;BME280;20721;47.402;8.550;2023-12-20T09:38:29;96531;;;8.52;65.57
2711;BME280;20721;47.402;8.550;2023-12-20T09:40:29;96526;;;8.57;65.48
2711;BME280;20721;47.402;8.550;2023-12-20T09:44:29;96522;;;8.55;65.39
2711;BME280;20721;47.402;8.550;2023-12-20T09:47:29;96519;;;8.40;65.57
2711;BME280;20721;47.402;8.550;2023-12-20T09:49:29;96521;;;8.35;66.17
2711;BME280;20721;47.402;8.550;2023-12-20T09:51:29;96526;;;8.27;66.33
2711;BME280;20721;47.402;8.550;2023-12-20T09:53:29;96523;;;8.10;66.92
2711;BME280;20721;47.402;8.550;2023-12-20T09:55:29;96520;;;8.13;67.20
2711;BME280;20721;47.402;8.550;2023-12-20T09:57:29;96516;;;8.20;67.42
2711;BME280;20721;47.402;8.550;2023-12-20T09:59:29;96516;;;8.27;67.19
2711;BME280;20721;47.402;8.550;2023-12-20T10:01:29;96512;;;8.34;67.25
2711;BME280;20721;47.402;8.550;2023-12-20T10:03:29;96515;;;8.35;66.72
2711;BME280;20721;47.402;8.550;2023-12-20T10:05:30;96515;;;8.34;67.20
2711;BME280;20721;47.402;8.550;2023-12-20T10:07:29;96520;;;8.40;67.42
2711;BME280;20721;47.402;8.550;2023-12-20T10:09:29;96524;;;8.49;67.18
2711;BME280;20721;47.402;8.550;2023-12-20T10:11:29;96524;;;8.53;67.35
2711;BME280;20721;47.402;8.550;2023-12-20T10:13:29;96519;;;8.50;67.20
2711;BME280;20721;47.402;8.550;2023-12-20T10:15:29;96521;;;8.52;67.40
2711;BME280;20721;47.402;8.550;2023-12-20T10:18:39;96510;;;8.57;67.25
2711;BME280;20721;47.402;8.550;2023-12-20T10:20:29;96511;;;8.67;66.99
2711;BME280;20721;47.402;8.550;2023-12-20T10:22:29;96503;;;8.67;66.52
2711;BME280;20721;47.402;8.550;2023-12-20T10:24:29;96497;;;8.60;66.59
2711;BME280;20721;47.402;8.550;2023-12-20T10:26:29;96495;;;8.60;66.44
2711;BME280;20721;47.402;8.550;2023-12-20T10:28:33;96492;;;8.66;66.60
2711;BME280;20721;47.402;8.550;2023-12-20T10:30:29;96493;;;8.80;66.75
2711;BME280;20721;47.402;8.550;2023-12-20T10:32:29;96488;;;8.93;66.31
2711;BME280;20721;47.402;8.550;2023-12-20T10:34:29;96485;;;8.93;65.69
2711;BME280;20721;47.402;8.550;2023-12-20T10:36:30;96484;;;8.91;66.00
2711;BME280;20721;47.402;8.550;2023-12-20T10:38:30;96481;;;8.92;66.29
2711;BME280;20721;47.402;8.550;2023-12-20T10:40:29;96480;;;8.86;66.02
2711;BME280;20721;47.402;8.550;2023-12-20T10:42:29;96480;;;8.78;65.99
2711;BME280;20721;47.402;8.550;2023-12-20T10:44:29;96479;;;8.88;66.18
2711;BME280;20721;47.402;8.550;2023-12-20T10:46:32;96474;;;8.82;66.00
2711;BME280;20721;47.402;8.550;2023-12-20T10:48:30;96473;;;8.86;66.01
2711;BME280;20721;47.402;8.550;2023-12-20T10:50:30;96468;;;8.85;65.76
2711;BME280;20721;47.402;8.550;2023-12-20T10:52:29;96463;;;8.89;65.94
2711;BME280;20721;47.402;8.550;2023-12-20T10:54:29;96466;;;8.90;66.06
2711;BME280;20721;47.402;8.550;2023-12-20T10:56:31;96464;;;8.96;65.68
2711;BME280;20721;47.402;8.550;2023-12-20T10:58:29;96461;;;9.03;65.13
2711;BME280;20721;47.402;8.550;2023-12-20T11:01:29;96460;;;9.10;65.18
2711;BME280;20721;47.402;8.550;2023-12-20T11:03:31;96454;;;9.10;65.28
2711;BME280;20721;47.402;8.550;2023-12-20T11:05:33;96451;;;9.16;64.95
2711;BME280;20721;47.402;8.550;2023-12-20T11:07:32;96448;;;9.22;64.96
2711;BME280;20721;47.402;8.550;2023-12-20T11:09:31;96448;;;9.23;64.34
2711;BME280;20721;47.402;8.550;2023-12-20T11:11:30;96447;;;9.19;64.42
2711;BME280;20721;47.402;8.550;2023-12-20T11:13:32;96450;;;9.21;64.51
2711;BME280;20721;47.402;8.550;2023-12-20T11:15:29;96451;;;9.21;64.66
2711;BME280;20721;47.402;8.550;2023-12-20T11:17:29;96447;;;9.10;64.52
2711;BME280;20721;47.402;8.550;2023-12-20T11:19:29;96451;;;8.74;64.79
2711;BME280;20721;47.402;8.550;2023-12-20T11:21:29;96450;;;8.61;64.63
2711;BME280;20721;47.402;8.550;2023-12-20T11:23:29;96452;;;8.74;65.28
2711;BME280;20721;47.402;8.550;2023-12-20T11:25:30;96445;;;9.00;64.56
2711;BME280;20721;47.402;8.550;2023-12-20T11:27:30;96450;;;9.10;64.21
2711;BME280;20721;47.402;8.550;2023-12-20T11:31:29;96444;;;9.32;63.88
2711;BME280;20721;47.402;8.550;2023-12-20T11:33:32;96440;;;9.41;63.50
2711;BME280;20721;47.402;8.550;2023-12-20T11:35:29;96448;;;9.10;62.63
2711;BME280;20721;47.402;8.550;2023-12-20T11:37:31;96447;;;9.01;62.16
2711;BME280;20721;47.402;8.550;2023-12-20T11:39:29;96443;;;9.18;63.13
2711;BME280;20721;47.402;8.550;2023-12-20T11:41:29;96445;;;9.32;62.21
2711;BME280;20721;47.402;8.550;2023-12-20T11:43:29;96441;;;9.29;62.55
2711;BME280;20721;47.402;8.550;2023-12-20T11:45:32;96447;;;9.29;61.98
2711;BME280;20721;47.402;8.550;2023-12-20T11:47:30;96439;;;9.34;62.49
2711;BME280;20721;47.402;8.550;2023-12-20T11:49:30;96432;;;9.40;61.55
2711;BME280;20721;47.402;8.550;2023-12-20T11:51:29;96441;;;9.44;61.59
2711;BME280;20721;47.402;8.550;2023-12-20T11:53:30;96444;;;9.41;61.17
2711;BME280;20721;47.402;8.550;2023-12-20T11:55:29;96445;;;9.28;61.05
2711;BME280;20721;47.402;8.550;2023-12-20T11:57:30;96442;;;9.14;61.49